createdAt,value
2023-04-22T00:00:09.299Z,100096.41
2023-04-22T00:03:11.843Z,100092.25
2023-04-22T00:06:13.954Z,100095.56
2023-04-22T00:09:16.255Z,100097.13
2023-04-22T00:12:20.245Z,100092.09
2023-04-22T00:15:22.758Z,100088.16
2023-04-22T00:18:24.746Z,100093.44
2023-04-22T00:21:29.723Z,100087.91
2023-04-22T00:24:31.710Z,100089.28
2023-04-22T00:27:33.947Z,100094.53
2023-04-22T00:30:36.305Z,100095.25
2023-04-22T00:33:38.560Z,100090.72
2023-04-22T00:36:40.610Z,100093.41
2023-04-22T00:39:43.174Z,100085.28
2023-04-22T00:42:46.242Z,100090.09
2023-04-22T00:45:49.194Z,100094.81
2023-04-22T00:48:51.309Z,100084.31
2023-04-22T00:51:54.010Z,100093.44
2023-04-22T00:54:56.115Z,100092.63
2023-04-22T00:58:00.659Z,100093.25
2023-04-22T01:01:03.379Z,100092.09
2023-04-22T01:04:06.753Z,100092.97
2023-04-22T01:07:08.877Z,100095.25
2023-04-22T01:10:11.374Z,100100.06
2023-04-22T01:13:13.413Z,100093.38
2023-04-22T01:16:15.832Z,100096.47
2023-04-22T01:19:18.565Z,100106.31
2023-04-22T01:22:21.421Z,100097.09
2023-04-22T01:25:24.117Z,100096.66
2023-04-22T01:28:26.717Z,100097.97
2023-04-22T01:31:31.274Z,100100.50
2023-04-22T01:34:33.707Z,100091.28
2023-04-22T01:37:35.687Z,100101.84
2023-04-22T01:40:38.487Z,100099.41
2023-04-22T01:43:40.494Z,100098.13
2023-04-22T01:46:42.783Z,100091.91
2023-04-22T01:49:44.760Z,100102.44
2023-04-22T01:52:47.782Z,100103.41
2023-04-22T01:55:49.819Z,100103.75
2023-04-22T01:58:52.185Z,100104.87
2023-04-22T02:01:54.553Z,100104.13
2023-04-22T02:04:57.433Z,100101.16
2023-04-22T02:07:59.480Z,100099.84
2023-04-22T02:11:01.875Z,100097.72
2023-04-22T02:14:03.814Z,100092.09
2023-04-22T02:17:06.040Z,100092.91
2023-04-22T02:20:09.772Z,100101.19
2023-04-22T02:23:11.805Z,100093.97
2023-04-22T02:26:14.032Z,100098.81
2023-04-22T02:29:18.939Z,100096.47
2023-04-22T02:32:22.253Z,100097.87
2023-04-22T02:35:24.253Z,100097.41
2023-04-22T02:38:26.557Z,100098.69
2023-04-22T02:41:28.563Z,100098.69
2023-04-22T02:44:30.885Z,100093.41
2023-04-22T02:47:32.945Z,100092.06
2023-04-22T02:50:35.428Z,100089.00
2023-04-22T02:53:37.469Z,100085.91
2023-04-22T02:56:39.853Z,100088.28
2023-04-22T02:59:42.207Z,100092.09
2023-04-22T03:02:45.036Z,100090.31
2023-04-22T03:05:47.267Z,100095.19
2023-04-22T03:08:49.929Z,100098.56
2023-04-22T03:11:51.921Z,100101.47
2023-04-22T03:14:54.244Z,100098.50
2023-04-22T03:17:56.809Z,100097.41
2023-04-22T03:21:00.836Z,100102.44
2023-04-22T03:24:02.938Z,100102.56
2023-04-22T03:27:06.115Z,100103.72
2023-04-22T03:30:08.541Z,100100.69
2023-04-22T03:33:11.480Z,100103.19
2023-04-22T03:36:13.617Z,100100.84
2023-04-22T03:39:15.952Z,100105.00
2023-04-22T03:42:18.638Z,100110.28
2023-04-22T03:45:21.549Z,100104.72
2023-04-22T03:48:24.851Z,100107.66
2023-04-22T03:51:27.740Z,100116.41
2023-04-22T03:54:29.764Z,100109.28
2023-04-22T03:57:32.062Z,100113.66
2023-04-22T04:00:34.650Z,100117.88
2023-04-22T04:03:38.813Z,100115.84
2023-04-22T04:06:42.409Z,100117.00
2023-04-22T04:09:44.917Z,100120.81
2023-04-22T04:12:46.920Z,100127.56
2023-04-22T04:15:49.365Z,100119.00
2023-04-22T04:18:52.422Z,100125.72
2023-04-22T04:21:55.880Z,100123.38
2023-04-22T04:24:58.436Z,100130.28
2023-04-22T04:28:01.519Z,100117.31
2023-04-22T04:31:03.662Z,100133.81
2023-04-22T04:34:07.367Z,100135.53
2023-04-22T04:37:11.592Z,100143.72
2023-04-22T04:40:16.326Z,100142.53
2023-04-22T04:43:19.350Z,100149.56
2023-04-22T04:46:22.046Z,100150.38
2023-04-22T04:49:24.263Z,100151.22
2023-04-22T04:52:27.112Z,100144.12
2023-04-22T04:55:29.278Z,100147.09
2023-04-22T04:58:32.671Z,100157.31
2023-04-22T05:01:37.334Z,100157.03
2023-04-22T05:04:41.194Z,100164.19
2023-04-22T05:07:43.387Z,100165.00
2023-04-22T05:10:46.467Z,100160.75
2023-04-22T05:13:48.733Z,100160.25
2023-04-22T05:16:52.987Z,100162.87
2023-04-22T05:19:55.660Z,100163.06
2023-04-22T05:22:58.386Z,100164.41
2023-04-22T05:26:00.573Z,100167.81
2023-04-22T05:29:02.993Z,100162.00
2023-04-22T05:32:05.227Z,100164.94
2023-04-22T05:35:07.800Z,100163.59
2023-04-22T05:38:10.421Z,100169.50
2023-04-22T05:41:13.093Z,100172.97
2023-04-22T05:44:15.166Z,100173.72
2023-04-22T05:47:17.791Z,100177.78
2023-04-22T05:50:21.230Z,100179.03
2023-04-22T05:53:25.790Z,100180.94
2023-04-22T05:56:27.857Z,100179.44
2023-04-22T05:59:30.229Z,100186.41
2023-04-22T06:02:32.508Z,100176.59
2023-04-22T06:05:34.934Z,100187.69
2023-04-22T06:08:37.016Z,100181.69
2023-04-22T06:11:40.445Z,100182.00
2023-04-22T06:14:42.409Z,100190.84
2023-04-22T06:17:45.674Z,100187.19
2023-04-22T06:20:47.873Z,100193.34
2023-04-22T06:23:50.762Z,100192.63
2023-04-22T06:26:52.813Z,100202.28
2023-04-22T06:29:55.133Z,100203.69
2023-04-22T06:32:57.493Z,100202.06
2023-04-22T06:36:00.274Z,100203.25
2023-04-22T06:39:03.431Z,100206.87
2023-04-22T06:42:07.974Z,100201.38
2023-04-22T06:45:12.913Z,100192.59
2023-04-22T06:48:16.513Z,100204.75
2023-04-22T06:51:18.950Z,100198.09
2023-04-22T06:54:21.401Z,100203.44
2023-04-22T06:57:26.628Z,100201.50
2023-04-22T07:00:29.211Z,100205.56
2023-04-22T07:03:33.935Z,100196.41
2023-04-22T07:06:36.553Z,100207.06
2023-04-22T07:09:39.545Z,100198.75
2023-04-22T07:12:42.127Z,100203.06
2023-04-22T07:15:46.100Z,100204.59
2023-04-22T07:18:48.578Z,100203.19
2023-04-22T07:21:50.787Z,100199.97
2023-04-22T07:24:53.061Z,100202.00
2023-04-22T07:27:55.022Z,100212.59
2023-04-22T07:30:57.285Z,100204.03
2023-04-22T07:34:01.300Z,100206.00
2023-04-22T07:37:03.668Z,100212.94
2023-04-22T07:40:06.139Z,100209.78
2023-04-22T07:43:08.360Z,100216.63
2023-04-22T07:46:10.312Z,100218.38
2023-04-22T07:49:14.255Z,100213.00
2023-04-22T07:52:16.454Z,100207.59
2023-04-22T07:55:18.708Z,100206.56
2023-04-22T07:58:20.680Z,100208.12
2023-04-22T08:01:23.067Z,100197.47
2023-04-22T08:04:25.890Z,100201.47
2023-04-22T08:07:33.129Z,100209.78
2023-04-22T08:10:35.955Z,100206.41
2023-04-22T08:13:37.940Z,100198.06
2023-04-22T08:16:40.444Z,100199.94
2023-04-22T08:19:42.376Z,100203.13
2023-04-22T08:22:45.075Z,100197.81
2023-04-22T08:25:47.496Z,100194.00
2023-04-22T08:28:49.809Z,100195.56
2023-04-22T08:31:51.757Z,100205.69
2023-04-22T08:34:54.313Z,100200.72
2023-04-22T08:38:03.381Z,100204.62
2023-04-22T08:41:08.379Z,100204.94
2023-04-22T08:44:11.303Z,100202.19
2023-04-22T08:47:14.917Z,100208.38
2023-04-22T08:50:16.880Z,100198.62
2023-04-22T08:53:21.301Z,100199.41
2023-04-22T08:56:24.694Z,100202.09
2023-04-22T08:59:27.171Z,100205.44
2023-04-22T09:02:31.580Z,100201.00
2023-04-22T09:05:34.421Z,100194.22
2023-04-22T09:08:36.498Z,100198.94
2023-04-22T09:11:38.717Z,100192.75
2023-04-22T09:14:41.588Z,100198.56
2023-04-22T09:17:43.899Z,100195.38
2023-04-22T09:20:49.184Z,100200.19
2023-04-22T09:23:52.419Z,100199.78
2023-04-22T09:26:55.472Z,100195.63
2023-04-22T09:29:57.716Z,100199.87
2023-04-22T09:33:00.466Z,100190.38
2023-04-22T09:36:08.504Z,100196.03
2023-04-22T09:39:10.479Z,100186.59
2023-04-22T09:42:12.732Z,100185.47
2023-04-22T09:45:24.625Z,100187.59
2023-04-22T09:48:28.996Z,100177.03
2023-04-22T09:51:32.411Z,100174.16
2023-04-22T09:54:37.139Z,100167.38
2023-04-22T09:57:39.251Z,100174.06
2023-04-22T10:00:50.038Z,100176.09
2023-04-22T10:03:52.296Z,100165.28
2023-04-22T10:06:54.429Z,100160.28
2023-04-22T10:09:57.352Z,100159.97
2023-04-22T10:12:59.892Z,100158.03
2023-04-22T10:16:02.702Z,100151.69
2023-04-22T10:19:06.588Z,100144.88
2023-04-22T10:22:10.618Z,100146.72
2023-04-22T10:25:23.359Z,100142.47
2023-04-22T10:28:28.398Z,100140.62
2023-04-22T10:31:30.974Z,100138.53
2023-04-22T10:34:33.592Z,100144.69
2023-04-22T10:37:35.824Z,100139.44
2023-04-22T10:40:58.017Z,100134.81
2023-04-22T10:44:07.439Z,100131.50
2023-04-22T10:47:09.690Z,100124.50
2023-04-22T10:50:14.918Z,100122.47
2023-04-22T10:53:35.897Z,100121.00
2023-04-22T10:56:58.471Z,100125.06
2023-04-22T11:00:00.860Z,100122.47
2023-04-22T11:03:05.723Z,100118.16
2023-04-22T11:06:18.129Z,100120.41
2023-04-22T11:09:21.413Z,100119.88
2023-04-22T11:12:36.015Z,100116.56
2023-04-22T11:15:39.101Z,100115.31
2023-04-22T11:18:41.456Z,100114.28
2023-04-22T11:21:44.038Z,100119.63
2023-04-22T11:24:59.979Z,100118.69
2023-04-22T11:28:02.208Z,100119.13
2023-04-22T11:31:06.498Z,100113.75
2023-04-22T11:34:09.289Z,100110.75
2023-04-22T11:37:11.656Z,100110.03
2023-04-22T11:40:29.275Z,100112.25
2023-04-22T11:43:33.300Z,100115.13
2023-04-22T11:46:39.319Z,100108.59
2023-04-22T11:49:41.614Z,100112.97
2023-04-22T11:52:48.030Z,100106.59
2023-04-22T11:55:51.336Z,100111.94
2023-04-22T11:58:53.313Z,100111.69
2023-04-22T12:01:55.689Z,100103.19
2023-04-22T12:04:58.854Z,100103.88
2023-04-22T12:08:06.153Z,100094.56
2023-04-22T12:11:10.515Z,100103.88
2023-04-22T12:14:12.452Z,100093.63
2023-04-22T12:17:15.591Z,100096.75
2023-04-22T12:20:17.587Z,100094.97
2023-04-22T12:23:21.039Z,100092.50
2023-04-22T12:26:32.830Z,100094.19
2023-04-22T12:29:35.094Z,100089.44
2023-04-22T12:32:40.100Z,100079.22
2023-04-22T12:35:44.926Z,100095.75
2023-04-22T12:38:47.092Z,100089.13
2023-04-22T12:41:51.068Z,100089.97
2023-04-22T12:44:53.058Z,100084.50
2023-04-22T12:47:55.420Z,100078.69
2023-04-22T12:50:58.079Z,100078.06
2023-04-22T12:54:00.385Z,100068.31
2023-04-22T12:57:02.521Z,100071.66
2023-04-22T13:00:06.854Z,100065.94
2023-04-22T13:03:09.010Z,100071.66
2023-04-22T13:06:11.233Z,100059.69
2023-04-22T13:09:13.163Z,100054.28
2023-04-22T13:12:15.514Z,100051.34
2023-04-22T13:15:19.305Z,100056.88
2023-04-22T13:18:23.163Z,100059.62
2023-04-22T13:21:25.177Z,100055.94
2023-04-22T13:24:27.636Z,100051.69
2023-04-22T13:27:29.638Z,100059.22
2023-04-22T13:30:32.014Z,100063.38
2023-04-22T13:33:33.975Z,100055.06
2023-04-22T13:36:36.512Z,100049.88
2023-04-22T13:39:38.786Z,100048.88
2023-04-22T13:42:41.932Z,100041.59
2023-04-22T13:45:44.111Z,100053.13
2023-04-22T13:48:46.513Z,100041.31
2023-04-22T13:51:48.577Z,100045.59
2023-04-22T13:54:51.762Z,100050.91
2023-04-22T13:57:53.735Z,100042.81
2023-04-22T14:00:56.148Z,100042.81
2023-04-22T14:03:58.454Z,100036.13
2023-04-22T14:07:00.649Z,100034.63
2023-04-22T14:10:02.937Z,100031.59
2023-04-22T14:13:04.966Z,100032.81
2023-04-22T14:16:11.789Z,100033.47
2023-04-22T14:19:14.212Z,100030.06
2023-04-22T14:22:16.419Z,100033.06
2023-04-22T14:25:18.530Z,100037.09
2023-04-22T14:28:21.054Z,100028.66
2023-04-22T14:31:24.543Z,100030.06
2023-04-22T14:34:27.391Z,100020.41
2023-04-22T14:37:29.715Z,100022.69
2023-04-22T14:40:31.961Z,100024.78
2023-04-22T14:43:34.267Z,100023.87
2023-04-22T14:46:36.745Z,100021.66
2023-04-22T14:49:38.890Z,100020.28
2023-04-22T14:52:41.279Z,100014.19
2023-04-22T14:55:43.667Z,100011.88
2023-04-22T14:58:45.940Z,100012.22
2023-04-22T15:01:47.988Z,100016.81
2023-04-22T15:04:50.276Z,100011.84
2023-04-22T15:07:52.378Z,100017.16
2023-04-22T15:10:54.708Z,100012.56
2023-04-22T15:13:57.069Z,100019.03
2023-04-22T15:16:59.833Z,100016.31
2023-04-22T15:20:05.296Z,100012.03
2023-04-22T15:23:08.426Z,100014.69
2023-04-22T15:26:11.551Z,100011.56
2023-04-22T15:29:14.061Z,100012.19
2023-04-22T15:32:16.190Z,100015.19
2023-04-22T15:35:20.170Z,100015.06
2023-04-22T15:38:22.262Z,100008.78
2023-04-22T15:41:25.236Z,100006.66
2023-04-22T15:44:28.307Z,100008.03
2023-04-22T15:47:30.927Z,100009.75
2023-04-22T15:50:32.973Z,100011.59
2023-04-22T15:53:35.240Z,100016.78
2023-04-22T15:56:37.287Z,100009.66
2023-04-22T15:59:39.761Z,100015.00
2023-04-22T16:02:42.596Z,100009.97
2023-04-22T16:05:45.259Z,100009.84
2023-04-22T16:08:47.208Z,100002.66
2023-04-22T16:11:49.453Z,100000.84
2023-04-22T16:14:51.396Z,100001.84
2023-04-22T16:17:53.665Z,100007.81
2023-04-22T16:20:55.649Z,99991.53
2023-04-22T16:23:58.613Z,99999.50
2023-04-22T16:27:01.768Z,99993.16
2023-04-22T16:30:04.451Z,99993.16
2023-04-22T16:33:06.905Z,99991.66
2023-04-22T16:36:10.251Z,99992.66
2023-04-22T16:39:12.407Z,99997.62
2023-04-22T16:42:17.015Z,99992.66
2023-04-22T16:45:18.951Z,99986.53
2023-04-22T16:48:21.302Z,99986.03
2023-04-22T16:51:23.258Z,99980.22
2023-04-22T16:54:25.501Z,99985.56
2023-04-22T16:57:27.475Z,99985.19
2023-04-22T17:00:29.798Z,99984.69
2023-04-22T17:03:31.966Z,99983.50
2023-04-22T17:06:34.341Z,99984.03
2023-04-22T17:09:36.398Z,99984.66
2023-04-22T17:12:38.632Z,99990.09
2023-04-22T17:15:41.336Z,99980.25
2023-04-22T17:18:43.791Z,99982.81
2023-04-22T17:21:45.781Z,99979.28
2023-04-22T17:24:48.072Z,99979.88
2023-04-22T17:27:50.017Z,99981.66
2023-04-22T17:30:52.409Z,99987.25
2023-04-22T17:33:54.830Z,99982.78
2023-04-22T17:36:57.100Z,99991.41
2023-04-22T17:39:59.114Z,99988.00
2023-04-22T17:43:01.485Z,99987.41
2023-04-22T17:46:03.440Z,99997.19
2023-04-22T17:49:05.741Z,99987.25
2023-04-22T17:52:07.691Z,99991.19
2023-04-22T17:55:10.005Z,99996.25
2023-04-22T17:58:12.099Z,99999.47
2023-04-22T18:01:14.390Z,100003.31
2023-04-22T18:04:16.759Z,100007.13
2023-04-22T18:07:18.899Z,100010.00
2023-04-22T18:10:21.255Z,100007.81
2023-04-22T18:13:23.222Z,100015.56
2023-04-22T18:16:25.743Z,100025.75
2023-04-22T18:19:27.789Z,100022.28
2023-04-22T18:22:30.189Z,100026.66
2023-04-22T18:25:32.289Z,100030.50
2023-04-22T18:28:34.523Z,100039.81
2023-04-22T18:31:36.644Z,100040.13
2023-04-22T18:34:39.737Z,100048.06
2023-04-22T18:37:43.015Z,100044.84
2023-04-22T18:40:46.208Z,100042.91
2023-04-22T18:43:48.476Z,100046.25
2023-04-22T18:46:52.906Z,100045.66
2023-04-22T18:49:55.324Z,100045.53
2023-04-22T18:52:57.667Z,100053.84
2023-04-22T18:55:59.865Z,100052.16
2023-04-22T18:59:02.248Z,100048.06
2023-04-22T19:02:06.038Z,100045.00
2023-04-22T19:05:08.540Z,100055.09
2023-04-22T19:08:10.472Z,100050.22
2023-04-22T19:11:12.768Z,100056.59
2023-04-22T19:14:14.929Z,100054.88
2023-04-22T19:17:17.361Z,100049.94
2023-04-22T19:20:19.331Z,100056.28
2023-04-22T19:23:21.773Z,100056.69
2023-04-22T19:26:23.740Z,100059.00
2023-04-22T19:29:25.975Z,100061.50
2023-04-22T19:32:27.977Z,100056.75
2023-04-22T19:35:30.208Z,100058.44
2023-04-22T19:38:32.232Z,100058.34
2023-04-22T19:41:34.555Z,100059.47
2023-04-22T19:44:36.625Z,100055.88
2023-04-22T19:47:43.382Z,100055.47
2023-04-22T19:50:45.828Z,100057.63
2023-04-22T19:53:48.375Z,100049.78
2023-04-22T19:56:51.110Z,100049.66
2023-04-22T19:59:54.190Z,100057.63
2023-04-22T20:02:56.920Z,100051.13
2023-04-22T20:06:00.350Z,100055.97
2023-04-22T20:09:05.273Z,100054.97
2023-04-22T20:12:07.989Z,100050.56
2023-04-22T20:15:10.625Z,100053.31
2023-04-22T20:18:14.129Z,100050.94
2023-04-22T20:21:16.256Z,100052.25
2023-04-22T20:24:19.728Z,100058.47
2023-04-22T20:30:24.600Z,100056.44
2023-04-22T20:33:26.786Z,100060.06
2023-04-22T20:36:30.635Z,100061.00
2023-04-22T20:39:34.442Z,100063.63
2023-04-22T20:42:36.957Z,100054.91
2023-04-22T20:45:38.968Z,100055.84
2023-04-22T20:48:42.513Z,100061.47
2023-04-22T20:51:44.481Z,100051.94
2023-04-22T20:54:51.089Z,100049.88
2023-04-22T20:57:53.027Z,100049.72
2023-04-22T21:00:55.697Z,100050.00
2023-04-22T21:03:58.391Z,100044.13
2023-04-22T21:07:06.580Z,100042.81
2023-04-22T21:10:08.929Z,100050.69
2023-04-22T21:13:11.611Z,100045.78
2023-04-22T21:16:13.812Z,100048.75
2023-04-22T21:19:16.322Z,100048.28
2023-04-22T21:22:19.726Z,100049.72
2023-04-22T21:25:22.417Z,100055.06
2023-04-22T21:28:24.545Z,100054.56
2023-04-22T21:31:27.794Z,100058.59
2023-04-22T21:34:32.672Z,100048.69
2023-04-22T21:37:34.931Z,100055.00
2023-04-22T21:40:39.104Z,100055.19
2023-04-22T21:43:41.412Z,100051.09
2023-04-22T21:46:45.375Z,100050.63
2023-04-22T21:49:47.697Z,100050.50
2023-04-22T21:52:49.774Z,100054.47
2023-04-22T21:55:52.117Z,100057.37
2023-04-22T21:58:54.144Z,100060.84
2023-04-22T22:01:56.559Z,100061.59
2023-04-22T22:04:58.806Z,100059.09
2023-04-22T22:08:00.733Z,100064.09
2023-04-22T22:11:03.892Z,100060.78
2023-04-22T22:14:05.872Z,100067.78
2023-04-22T22:17:09.570Z,100064.94
2023-04-22T22:20:13.101Z,100071.34
2023-04-22T22:23:15.425Z,100068.41
2023-04-22T22:26:17.424Z,100069.91
2023-04-22T22:29:19.817Z,100064.81
2023-04-22T22:32:22.391Z,100071.03
2023-04-22T22:35:24.705Z,100064.00
2023-04-22T22:38:26.713Z,100077.00
2023-04-22T22:41:29.147Z,100071.34
2023-04-22T22:44:31.421Z,100070.38
2023-04-22T22:47:33.776Z,100068.63
2023-04-22T22:50:35.757Z,100078.16
2023-04-22T22:53:38.076Z,100069.50
2023-04-22T22:56:40.656Z,100074.19
2023-04-22T22:59:42.908Z,100079.75
2023-04-22T23:02:45.145Z,100076.59
2023-04-22T23:05:47.477Z,100085.72
2023-04-22T23:08:49.441Z,100083.94
2023-04-22T23:11:52.031Z,100080.09
2023-04-22T23:14:53.995Z,100087.72
2023-04-22T23:17:56.370Z,100081.22
2023-04-22T23:21:01.058Z,100080.38
2023-04-22T23:24:06.385Z,100082.03
2023-04-22T23:27:08.484Z,100085.50
2023-04-22T23:30:11.168Z,100086.75
2023-04-22T23:33:15.650Z,100083.69
2023-04-22T23:36:19.285Z,100087.09
2023-04-22T23:39:21.333Z,100081.72
2023-04-22T23:42:23.668Z,100082.25
2023-04-22T23:45:25.975Z,100084.16
2023-04-22T23:48:28.371Z,100086.75
2023-04-22T23:51:30.409Z,100080.91
2023-04-22T23:54:34.948Z,100079.62
2023-04-22T23:57:37.448Z,100083.44
